createdAt,value
2019-04-21T00:00:56.403Z,13.33
2019-04-21T00:03:27.092Z,13.23
2019-04-21T00:06:08.827Z,13.21
2019-04-21T00:08:39.236Z,13.11
2019-04-21T00:11:09.314Z,13.13
2019-04-21T00:13:32.926Z,13.03
2019-04-21T00:15:55.888Z,13.10
2019-04-21T00:18:53.763Z,13.08
2019-04-21T00:21:26.646Z,13.00
2019-04-21T00:24:20.348Z,12.86
2019-04-21T00:26:59.031Z,12.88
2019-04-21T00:29:36.603Z,12.88
2019-04-21T00:31:55.564Z,12.85
2019-04-21T00:34:17.696Z,12.81
2019-04-21T00:36:56.023Z,12.76
2019-04-21T00:39:47.100Z,12.73
2019-04-21T00:42:05.514Z,12.68
2019-04-21T00:44:24.469Z,12.65
2019-04-21T00:47:00.736Z,12.65
2019-04-21T00:49:31.984Z,12.66
2019-04-21T00:52:24.784Z,12.62
2019-04-21T00:54:52.059Z,12.50
2019-04-21T00:57:17.518Z,12.48
2019-04-21T00:59:48.015Z,12.47
2019-04-21T01:02:12.414Z,12.47
2019-04-21T01:04:42.815Z,12.41
2019-04-21T01:07:13.226Z,12.35
2019-04-21T01:09:35.561Z,12.41
2019-04-21T01:12:11.026Z,12.34
2019-04-21T01:14:40.951Z,12.32
2019-04-21T01:17:13.007Z,12.26
2019-04-21T01:19:36.998Z,12.22
2019-04-21T01:21:47.698Z,12.21
2019-04-21T01:24:21.721Z,12.19
2019-04-21T01:26:59.674Z,12.16
2019-04-21T01:29:39.009Z,12.17
2019-04-21T01:32:14.611Z,12.12
2019-04-21T01:34:33.115Z,12.09
2019-04-21T01:36:59.886Z,11.99
2019-04-21T01:39:39.344Z,11.93
2019-04-21T01:42:03.823Z,11.91
2019-04-21T01:44:37.444Z,11.94
2019-04-21T01:46:51.861Z,11.91
2019-04-21T01:49:19.200Z,11.95
2019-04-21T01:52:08.809Z,11.86
2019-04-21T01:54:53.829Z,11.89
2019-04-21T01:57:17.768Z,11.79
2019-04-21T01:59:43.902Z,11.83
2019-04-21T02:02:17.193Z,11.72
2019-04-21T02:05:01.147Z,11.55
2019-04-21T02:07:14.919Z,11.50
2019-04-21T02:09:55.622Z,11.44
2019-04-21T02:12:20.023Z,11.46
2019-04-21T02:14:56.288Z,11.45
2019-04-21T02:17:20.399Z,11.35
2019-04-21T02:19:35.979Z,11.40
2019-04-21T02:22:10.809Z,11.36
2019-04-21T02:24:49.372Z,11.37
2019-04-21T02:27:14.848Z,11.31
2019-04-21T02:29:48.758Z,11.21
2019-04-21T02:32:24.731Z,11.15
2019-04-21T02:39:56.714Z,11.17
2019-04-21T02:44:51.463Z,11.16
2019-04-21T02:49:53.593Z,11.11
2019-04-21T02:52:26.544Z,11.21
2019-04-21T03:00:06.511Z,11.08
2019-04-21T03:06:00.300Z,10.93
2019-04-21T03:08:32.172Z,10.87
2019-04-21T03:10:54.212Z,10.73
2019-04-21T03:18:28.024Z,10.65
2019-04-21T03:20:51.128Z,10.54
2019-04-21T03:23:32.017Z,10.59
2019-04-21T03:26:12.072Z,10.61
2019-04-21T03:28:22.192Z,10.59
2019-04-21T03:33:58.820Z,10.59
2019-04-21T03:36:13.041Z,10.49
2019-04-21T03:38:35.442Z,10.47
2019-04-21T03:40:39.954Z,10.49
2019-04-21T03:43:23.197Z,10.45
2019-04-21T03:48:24.019Z,10.41
2019-04-21T03:50:44.781Z,10.29
2019-04-21T04:11:29.481Z,10.23
2019-04-21T04:14:07.619Z,10.08
2019-04-21T04:16:22.195Z,10.08
2019-04-21T04:21:20.857Z,10.08
2019-04-21T04:26:14.182Z,10.02
2019-04-21T04:28:58.129Z,10.01
2019-04-21T04:31:25.905Z,9.97
2019-04-21T04:33:58.113Z,9.98
2019-04-21T04:36:31.901Z,9.98
2019-04-21T04:41:26.546Z,10.02
2019-04-21T04:43:59.030Z,9.95
2019-04-21T04:46:18.208Z,9.87
2019-04-21T04:48:51.338Z,9.94
2019-04-21T04:51:27.117Z,9.91
2019-04-21T04:53:53.927Z,10.01
2019-04-21T04:56:20.578Z,10.00
2019-04-21T05:01:28.791Z,10.06
2019-04-21T05:06:42.083Z,10.06
2019-04-21T05:11:39.589Z,10.15
2019-04-21T05:14:02.872Z,10.18
2019-04-21T05:16:36.644Z,10.23
2019-04-21T05:19:03.818Z,10.30
2019-04-21T05:21:30.163Z,10.26
2019-04-21T05:23:44.195Z,10.36
2019-04-21T05:26:07.022Z,10.47
2019-04-21T05:28:37.617Z,10.57
2019-04-21T05:31:38.305Z,10.66
2019-04-21T05:34:10.750Z,10.79
2019-04-21T05:39:33.674Z,10.88
2019-04-21T05:41:54.264Z,10.90
2019-04-21T05:44:41.343Z,10.99
2019-04-21T05:47:14.178Z,11.03
2019-04-21T05:49:56.017Z,11.17
2019-04-21T05:52:22.918Z,11.43
2019-04-21T05:57:28.824Z,12.30
2019-04-21T05:59:53.203Z,12.75
2019-04-21T06:02:47.905Z,13.07
2019-04-21T06:05:10.429Z,13.37
2019-04-21T06:07:28.725Z,13.50
2019-04-21T06:12:28.414Z,13.87
2019-04-21T06:15:03.744Z,13.95
2019-04-21T06:17:34.845Z,14.12
2019-04-21T06:20:00.325Z,14.42
2019-04-21T06:22:28.862Z,14.59
2019-04-21T06:30:00.148Z,14.72
2019-04-21T06:35:12.726Z,14.71
2019-04-21T06:42:27.823Z,14.93
2019-04-21T06:47:35.071Z,15.24
2019-04-21T06:49:53.712Z,15.60
2019-04-21T06:52:51.669Z,15.74
2019-04-21T06:55:03.520Z,16.01
2019-04-21T06:57:29.163Z,15.99
2019-04-21T06:59:54.280Z,16.28
2019-04-21T07:05:20.000Z,16.49
2019-04-21T07:07:55.176Z,16.20
2019-04-21T07:10:11.095Z,16.25
2019-04-21T07:12:32.171Z,16.26
2019-04-21T07:15:19.233Z,16.14
2019-04-21T07:17:46.946Z,16.62
2019-04-21T07:22:31.291Z,16.36
2019-04-21T07:25:03.002Z,16.63
2019-04-21T07:27:28.986Z,16.51
2019-04-21T07:29:59.575Z,16.47
2019-04-21T07:32:29.221Z,16.48
2019-04-21T07:34:57.604Z,16.53
2019-04-21T07:37:23.883Z,16.48
2019-04-21T07:39:52.827Z,16.36
2019-04-21T07:42:18.534Z,16.53
2019-04-21T07:44:46.292Z,16.65
2019-04-21T07:47:27.214Z,16.76
2019-04-21T07:50:07.349Z,16.85
2019-04-21T07:53:02.091Z,16.64
2019-04-21T07:57:54.832Z,16.83
2019-04-21T08:00:29.335Z,16.87
2019-04-21T08:02:57.801Z,16.86
2019-04-21T08:05:26.776Z,16.93
2019-04-21T08:07:55.894Z,17.08
2019-04-21T08:10:22.936Z,17.05
2019-04-21T08:12:47.345Z,17.15
2019-04-21T08:18:09.259Z,17.29
2019-04-21T08:20:18.813Z,17.39
2019-04-21T08:22:51.596Z,17.45
2019-04-21T08:25:21.897Z,17.55
2019-04-21T08:30:19.079Z,17.90
2019-04-21T08:35:49.687Z,18.12
2019-04-21T08:37:46.567Z,18.41
2019-04-21T08:40:19.650Z,18.55
2019-04-21T08:42:46.692Z,18.71
2019-04-21T08:45:15.227Z,18.81
2019-04-21T08:48:00.445Z,18.97
2019-04-21T08:50:25.406Z,19.08
2019-04-21T08:55:40.114Z,19.05
2019-04-21T08:58:28.978Z,19.18
2019-04-21T09:01:10.332Z,19.23
2019-04-21T09:06:40.271Z,19.31
2019-04-21T09:09:01.621Z,19.35
2019-04-21T09:11:22.684Z,19.39
2019-04-21T09:13:57.151Z,19.45
2019-04-21T09:16:21.888Z,19.54
2019-04-21T09:18:45.717Z,19.54
2019-04-21T09:21:25.604Z,19.58
2019-04-21T09:23:50.808Z,19.55
2019-04-21T09:26:20.114Z,19.71
2019-04-21T09:28:45.097Z,19.72
2019-04-21T09:31:03.244Z,19.89
2019-04-21T09:33:47.147Z,20.33
2019-04-21T09:36:15.415Z,20.80
2019-04-21T09:38:42.483Z,21.59
2019-04-21T09:41:14.260Z,21.78
2019-04-21T09:43:43.609Z,22.50
2019-04-21T09:46:08.402Z,22.46
2019-04-21T09:48:46.619Z,22.51
2019-04-21T09:51:06.481Z,22.47
2019-04-21T09:53:37.733Z,22.40
2019-04-21T09:56:07.949Z,22.41
2019-04-21T09:58:39.848Z,22.43
2019-04-21T10:01:11.628Z,22.22
2019-04-21T10:03:36.174Z,22.15
2019-04-21T10:06:00.721Z,22.16
2019-04-21T10:08:29.479Z,22.23
2019-04-21T10:10:57.035Z,22.18
2019-04-21T10:13:25.312Z,22.18
2019-04-21T10:16:08.799Z,22.23
2019-04-21T10:18:36.383Z,22.24
2019-04-21T10:21:03.989Z,22.30
2019-04-21T10:23:31.667Z,22.39
2019-04-21T10:25:59.055Z,22.35
2019-04-21T10:28:26.849Z,22.53
2019-04-21T10:30:54.298Z,22.70
2019-04-21T10:33:22.015Z,22.64
2019-04-21T10:35:49.257Z,22.71
2019-04-21T10:38:29.239Z,22.79
2019-04-21T10:40:47.454Z,23.04
2019-04-21T10:43:17.657Z,23.26
2019-04-21T10:45:44.239Z,23.60
2019-04-21T10:48:12.775Z,23.94
2019-04-21T10:50:41.215Z,24.59
2019-04-21T10:53:18.876Z,25.48
2019-04-21T10:56:01.491Z,26.48
2019-04-21T10:58:20.410Z,27.67
2019-04-21T11:00:51.526Z,28.63
2019-04-21T11:03:33.238Z,29.43
2019-04-21T11:06:01.282Z,29.45
2019-04-21T11:08:34.155Z,30.26
2019-04-21T11:10:58.254Z,31.02
2019-04-21T11:13:32.620Z,31.50
2019-04-21T11:16:01.295Z,32.31
2019-04-21T11:18:35.747Z,32.73
2019-04-21T11:21:04.911Z,33.00
2019-04-21T11:23:35.372Z,33.06
2019-04-21T11:26:04.271Z,33.87
2019-04-21T11:28:31.870Z,33.83
2019-04-21T11:31:00.462Z,34.07
2019-04-21T11:33:29.394Z,34.10
2019-04-21T11:35:57.427Z,34.87
2019-04-21T11:38:55.314Z,35.16
2019-04-21T11:41:07.713Z,35.08
2019-04-21T11:43:35.199Z,35.39
2019-04-21T11:46:02.768Z,35.28
2019-04-21T11:48:30.512Z,35.17
2019-04-21T11:50:59.269Z,35.08
2019-04-21T11:53:28.612Z,34.90
2019-04-21T11:55:56.978Z,35.09
2019-04-21T11:58:26.165Z,35.23
2019-04-21T12:00:57.947Z,35.44
2019-04-21T12:03:27.362Z,35.33
2019-04-21T12:05:55.669Z,35.22
2019-04-21T12:08:32.431Z,35.14
2019-04-21T12:10:53.517Z,34.90
2019-04-21T12:13:22.313Z,34.99
2019-04-21T12:15:50.195Z,35.05
2019-04-21T12:18:17.900Z,35.12
2019-04-21T12:20:45.346Z,34.95
2019-04-21T12:23:14.206Z,35.28
2019-04-21T12:25:45.322Z,35.08
2019-04-21T12:28:14.259Z,35.12
2019-04-21T12:30:43.537Z,35.10
2019-04-21T12:33:31.834Z,35.03
2019-04-21T12:35:59.989Z,34.70
2019-04-21T12:38:35.415Z,34.59
2019-04-21T12:40:56.979Z,34.44
2019-04-21T12:43:24.494Z,34.23
2019-04-21T12:45:51.934Z,34.27
2019-04-21T12:48:20.091Z,34.13
2019-04-21T12:50:47.950Z,34.20
2019-04-21T12:53:16.077Z,33.96
2019-04-21T12:55:46.337Z,33.79
2019-04-21T12:58:15.178Z,33.68
2019-04-21T13:00:42.952Z,33.62
2019-04-21T13:03:11.880Z,33.36
2019-04-21T13:05:39.997Z,33.39
2019-04-21T13:08:07.387Z,33.27
2019-04-21T13:10:35.941Z,33.03
2019-04-21T13:13:03.826Z,32.95
2019-04-21T13:15:31.521Z,32.93
2019-04-21T13:18:00.558Z,32.89
2019-04-21T13:20:31.781Z,32.63
2019-04-21T13:23:01.943Z,32.02
2019-04-21T13:25:34.186Z,31.89
2019-04-21T13:28:07.359Z,31.32
2019-04-21T13:30:38.066Z,31.01
2019-04-21T13:33:15.451Z,30.97
2019-04-21T13:35:42.923Z,30.83
2019-04-21T13:38:19.907Z,30.37
2019-04-21T13:41:12.253Z,30.35
2019-04-21T13:43:23.305Z,30.11
2019-04-21T13:45:51.763Z,29.78
2019-04-21T13:48:19.423Z,29.49
2019-04-21T13:50:47.134Z,29.24
2019-04-21T13:53:14.786Z,29.20
2019-04-21T13:55:42.683Z,29.29
2019-04-21T13:58:14.603Z,29.05
2019-04-21T14:00:45.623Z,29.05
2019-04-21T14:03:14.517Z,28.77
2019-04-21T14:05:46.667Z,28.70
2019-04-21T14:08:15.513Z,28.44
2019-04-21T14:10:43.903Z,28.26
2019-04-21T14:13:12.152Z,28.22
2019-04-21T14:15:39.938Z,28.15
2019-04-21T14:18:07.341Z,28.16
2019-04-21T14:20:35.239Z,28.05
2019-04-21T14:23:17.230Z,27.92
2019-04-21T14:25:35.502Z,27.89
2019-04-21T14:28:04.034Z,27.91
2019-04-21T14:30:32.518Z,27.81
2019-04-21T14:33:00.297Z,27.83
2019-04-21T14:35:29.372Z,27.80
2019-04-21T14:37:58.203Z,27.66
2019-04-21T14:40:29.508Z,27.64
2019-04-21T14:42:56.278Z,27.49
2019-04-21T14:45:45.132Z,27.45
2019-04-21T14:48:32.867Z,27.43
2019-04-21T14:51:19.050Z,27.38
2019-04-21T14:53:59.754Z,27.30
2019-04-21T14:56:27.383Z,27.27
2019-04-21T14:58:57.323Z,27.27
2019-04-21T15:01:26.124Z,27.13
2019-04-21T15:03:55.425Z,27.16
2019-04-21T15:06:23.170Z,27.27
2019-04-21T15:08:53.296Z,27.18
2019-04-21T15:11:22.173Z,27.26
2019-04-21T15:13:51.394Z,27.21
2019-04-21T15:16:18.843Z,27.14
2019-04-21T15:18:46.578Z,27.00
2019-04-21T15:21:15.075Z,26.98
2019-04-21T15:23:44.666Z,26.87
2019-04-21T15:26:12.374Z,26.78
2019-04-21T15:28:42.238Z,26.68
2019-04-21T15:31:12.777Z,26.68
2019-04-21T15:33:39.585Z,26.69
2019-04-21T15:36:07.111Z,26.68
2019-04-21T15:38:35.894Z,26.67
2019-04-21T15:41:08.322Z,26.80
2019-04-21T15:43:34.296Z,26.71
2019-04-21T15:46:02.611Z,26.75
2019-04-21T15:48:30.800Z,26.60
2019-04-21T15:50:58.860Z,26.56
2019-04-21T15:53:30.054Z,26.61
2019-04-21T15:56:22.909Z,26.55
2019-04-21T15:59:08.932Z,26.55
2019-04-21T16:01:56.810Z,26.51
2019-04-21T16:04:25.122Z,26.59
2019-04-21T16:06:55.472Z,26.47
2019-04-21T16:09:25.901Z,26.52
2019-04-21T16:11:55.790Z,26.50
2019-04-21T16:14:24.818Z,26.39
2019-04-21T16:16:54.471Z,26.31
2019-04-21T16:19:23.013Z,26.32
2019-04-21T16:21:56.927Z,26.20
2019-04-21T16:24:25.316Z,26.23
2019-04-21T16:26:53.114Z,26.28
2019-04-21T16:29:20.866Z,26.08
2019-04-21T16:31:49.052Z,26.15
2019-04-21T16:34:17.779Z,26.07
2019-04-21T16:36:47.821Z,25.98
2019-04-21T16:39:15.577Z,25.98
2019-04-21T16:41:44.478Z,25.91
2019-04-21T16:44:13.431Z,25.88
2019-04-21T16:46:41.332Z,25.83
2019-04-21T16:49:09.657Z,25.82
2019-04-21T16:51:38.056Z,25.72
2019-04-21T16:54:13.953Z,25.63
2019-04-21T16:56:52.120Z,25.61
2019-04-21T16:59:38.893Z,25.53
2019-04-21T17:02:07.074Z,25.46
2019-04-21T17:04:36.226Z,25.45
2019-04-21T17:07:11.341Z,25.23
2019-04-21T17:09:41.661Z,25.26
2019-04-21T17:12:13.747Z,25.22
2019-04-21T17:14:53.651Z,25.20
2019-04-21T17:17:32.310Z,25.11
2019-04-21T17:19:43.834Z,24.98
2019-04-21T17:22:10.018Z,24.96
2019-04-21T17:24:38.037Z,24.69
2019-04-21T17:27:06.944Z,24.75
2019-04-21T17:29:34.678Z,24.60
2019-04-21T17:32:06.506Z,24.56
2019-04-21T17:34:34.281Z,24.41
2019-04-21T17:37:03.499Z,24.44
2019-04-21T17:39:31.229Z,24.39
2019-04-21T17:42:11.746Z,24.18
2019-04-21T17:44:29.802Z,24.13
2019-04-21T17:47:05.235Z,24.04
2019-04-21T17:49:30.901Z,24.06
2019-04-21T17:52:25.050Z,24.00
2019-04-21T17:55:20.988Z,23.96
2019-04-21T17:57:57.086Z,23.76
2019-04-21T18:00:53.446Z,23.62
2019-04-21T18:02:58.996Z,23.43
2019-04-21T18:05:31.969Z,23.37
2019-04-21T18:07:56.779Z,23.22
2019-04-21T18:10:33.857Z,23.11
2019-04-21T18:12:54.497Z,22.95
2019-04-21T18:15:34.062Z,22.76
2019-04-21T18:17:44.968Z,22.75
2019-04-21T18:20:23.911Z,22.67
2019-04-21T18:23:35.139Z,22.65
2019-04-21T18:26:01.987Z,22.41
2019-04-21T18:28:22.836Z,22.16
2019-04-21T18:30:56.635Z,22.12
2019-04-21T18:33:29.948Z,22.13
2019-04-21T18:36:31.845Z,22.10
2019-04-21T18:39:18.024Z,21.87
2019-04-21T18:41:36.562Z,21.71
2019-04-21T18:44:32.240Z,21.64
2019-04-21T18:47:16.565Z,21.45
2019-04-21T18:49:39.049Z,21.30
2019-04-21T18:52:45.219Z,21.17
2019-04-21T18:55:14.225Z,21.06
2019-04-21T18:57:37.516Z,20.87
2019-04-21T18:59:59.455Z,20.50
2019-04-21T19:02:31.682Z,20.23
2019-04-21T19:05:04.361Z,20.12
2019-04-21T19:07:45.581Z,20.01
2019-04-21T19:10:22.242Z,19.84
2019-04-21T19:15:19.842Z,19.64
2019-04-21T19:20:25.496Z,19.43
2019-04-21T19:22:52.217Z,19.38
2019-04-21T19:25:20.840Z,19.28
2019-04-21T19:27:50.249Z,19.15
2019-04-21T19:32:51.065Z,18.99
2019-04-21T19:35:07.885Z,18.91
2019-04-21T19:37:43.829Z,18.76
2019-04-21T19:40:25.149Z,18.62
2019-04-21T19:42:51.432Z,18.49
2019-04-21T19:45:22.550Z,18.35
2019-04-21T19:48:02.308Z,18.30
2019-04-21T19:50:33.518Z,18.21
2019-04-21T19:52:52.017Z,18.05
2019-04-21T19:55:11.911Z,17.99
2019-04-21T19:57:41.047Z,17.82
2019-04-21T20:00:11.237Z,17.79
2019-04-21T20:02:40.204Z,17.69
2019-04-21T20:05:13.605Z,17.59
2019-04-21T20:07:54.790Z,17.37
2019-04-21T20:10:27.117Z,17.46
2019-04-21T20:12:55.580Z,17.15
2019-04-21T20:15:30.370Z,17.19
2019-04-21T20:17:50.141Z,17.14
2019-04-21T20:20:06.898Z,17.07
2019-04-21T20:22:40.380Z,16.94
2019-04-21T20:25:11.639Z,16.90
2019-04-21T20:27:45.514Z,16.99
2019-04-21T20:30:27.777Z,16.70
2019-04-21T20:32:56.488Z,16.54
2019-04-21T20:35:30.799Z,16.70
2019-04-21T20:37:47.738Z,16.46
2019-04-21T20:40:23.298Z,16.48
2019-04-21T20:42:47.028Z,16.28
2019-04-21T20:45:40.655Z,16.24
2019-04-21T20:47:42.417Z,16.14
2019-04-21T20:50:19.787Z,16.17
2019-04-21T20:52:54.074Z,15.91
2019-04-21T20:55:16.598Z,15.56
2019-04-21T20:57:50.645Z,15.49
2019-04-21T21:00:23.360Z,15.75
2019-04-21T21:03:04.511Z,15.90
2019-04-21T21:05:23.372Z,15.88
2019-04-21T21:07:55.941Z,15.76
2019-04-21T21:10:20.384Z,15.62
2019-04-21T21:13:00.965Z,15.57
2019-04-21T21:15:24.700Z,15.40
2019-04-21T21:18:01.039Z,15.57
2019-04-21T21:20:29.511Z,15.50
2019-04-21T21:22:55.155Z,15.45
2019-04-21T21:25:25.886Z,15.29
2019-04-21T21:27:44.513Z,15.42
2019-04-21T21:30:31.306Z,15.29
2019-04-21T21:33:10.519Z,15.32
2019-04-21T21:35:26.103Z,15.15
2019-04-21T21:38:04.490Z,14.96
2019-04-21T21:40:30.399Z,14.85
2019-04-21T21:42:45.285Z,14.61
2019-04-21T21:45:17.256Z,14.61
2019-04-21T21:47:58.016Z,14.61
2019-04-21T21:50:20.848Z,14.38
2019-04-21T21:52:52.474Z,14.39
2019-04-21T21:55:10.162Z,14.35
2019-04-21T21:57:44.318Z,14.18
2019-04-21T22:00:12.353Z,14.22
2019-04-21T22:02:45.434Z,14.18
2019-04-21T22:05:12.980Z,14.10
2019-04-21T22:07:38.835Z,14.10
2019-04-21T22:10:08.486Z,13.98
2019-04-21T22:12:45.524Z,13.89
2019-04-21T22:15:12.642Z,13.79
2019-04-21T22:17:55.978Z,13.75
2019-04-21T22:20:27.235Z,13.51
2019-04-21T22:22:44.772Z,13.64
2019-04-21T22:25:12.728Z,13.50
2019-04-21T22:27:36.943Z,13.47
2019-04-21T22:30:09.396Z,13.52
2019-04-21T22:32:36.923Z,13.39
2019-04-21T22:35:10.787Z,13.31
2019-04-21T22:37:47.364Z,13.24
2019-04-21T22:40:22.999Z,13.20
2019-04-21T22:42:50.095Z,13.22
2019-04-21T22:45:09.199Z,13.24
2019-04-21T22:47:39.863Z,13.16
2019-04-21T22:50:08.443Z,13.20
2019-04-21T22:52:37.408Z,13.10
2019-04-21T22:55:12.000Z,12.95
2019-04-21T22:57:43.428Z,12.81
2019-04-21T23:00:18.312Z,12.84
2019-04-21T23:02:46.910Z,12.58
2019-04-21T23:05:20.709Z,12.73
2019-04-21T23:07:51.185Z,12.63
2019-04-21T23:10:14.305Z,12.46
2019-04-21T23:12:43.510Z,12.42
2019-04-21T23:15:17.143Z,12.55
2019-04-21T23:18:00.846Z,12.39
2019-04-21T23:20:32.787Z,12.35
2019-04-21T23:23:09.909Z,12.23
2019-04-21T23:25:26.214Z,12.21
2019-04-21T23:27:56.186Z,11.97
2019-04-21T23:30:38.867Z,11.98
2019-04-21T23:32:50.452Z,11.98
2019-04-21T23:35:19.682Z,12.00
2019-04-21T23:37:50.073Z,12.02
2019-04-21T23:40:16.494Z,12.00
2019-04-21T23:42:43.367Z,11.76
2019-04-21T23:45:10.634Z,11.83
2019-04-21T23:47:48.096Z,11.71
2019-04-21T23:50:23.449Z,11.68
2019-04-21T23:52:39.150Z,11.72
2019-04-21T23:55:07.612Z,11.80
2019-04-21T23:57:40.819Z,11.64
